Nevskiy-22 — UFSO — position and weather

sailwx.info

Track history (hours):
 
Tides and Currents Weather Stations Pressure Air Temp Water Temp Dewpoint Dewpoint Depression Visibility Wind Speed Wind Dir Waves Ship Positions

Nevskiy-22

Last reported at 2015-Jul-04 06:33 UTC. Time now 2015-Jul-04 17:04 UTC.
Position N 59°60' E 029°39'.

Length 111 m; draft 2.4 m.

Type: Cargo ship. MMSI: 273449940.

Date/timePositionNaut miles runAvg speedWind from/ knotsBaromVisibWave heightAir tempDewpointWater temp
2015-Jul-04 06:33N 59°60' E 029°39'5 4.7
2015-Jul-04 05:33N 59°58' E 029°48'7 7.2
2015-Jul-04 04:33N 59°55' E 030°01'6 5.7
2015-Jul-04 03:33N 59°58' E 030°12'6 6.4
2015-Jul-04 02:33N 59°57' E 030°24'1 0.1
2015-Jul-03 09:33N 59°56' E 030°24'4 3.7
2015-Jul-03 08:33N 59°57' E 030°17'1 0.8
2015-Jul-03 07:33N 59°57' E 030°15'3 2.5
2015-Jul-03 06:33N 59°58' E 030°10'5 5.3
2015-Jul-03 05:33N 59°55' E 030°01'5 5.2
2015-Jul-03 04:33N 59°57' E 029°51'15 1.0
2015-Jul-02 14:30N 60°00' E 029°22'7 7.6
2015-Jul-02 13:31N 59°60' E 029°37'6 6.3
2015-Jul-02 12:33N 59°58' E 029°48'7 7.3
2015-Jul-02 11:33N 59°56' E 030°03'7 7.2
2015-Jul-02 10:33N 59°57' E 030°17'5 0.8
2015-Jul-02 04:33N 59°55' E 030°25'4 3.6
2015-Jul-02 03:34N 59°57' E 030°19'2 1.9
2015-Jul-02 02:34N 59°57' E 030°15'3 2.6
2015-Jul-02 01:34N 59°58' E 030°10'7 7.0
2015-Jul-02 00:33N 59°56' E 029°56'9 0.6
2015-Jul-01 10:32N 59°60' E 029°41'8 7.9
2015-Jul-01 09:33N 59°56' E 029°55'7 7.4
2015-Jul-01 08:34N 59°57' E 030°09'3 2.9
2015-Jul-01 07:33N 59°57' E 030°15'0 0.0
2015-Jul-01 06:33N 59°57' E 030°15'5 4.5
2015-Jul-01 05:33N 59°57' E 030°24'1 0.0
2015-Jun-30 16:32N 59°56' E 030°24'4 4.2
2015-Jun-30 15:33N 59°57' E 030°16'6 6.1
2015-Jun-30 14:33N 59°56' E 030°04'6 6.5
2015-Jun-30 13:33N 59°57' E 029°51'13 1.1
2015-Jun-30 01:13N 60°00' E 029°25'6 7.9
2015-Jun-30 00:30N 59°60' E 029°36'8 8.0
2015-Jun-29 23:33N 59°57' E 029°51'8 7.5
2015-Jun-29 22:33N 59°56' E 030°06'7 6.9
2015-Jun-29 21:32N 59°57' E 030°20'4 0.7
2015-Jun-29 16:04N 59°54' E 030°26'3 4.9
2015-Jun-29 15:33N 59°57' E 030°24'4 4.3
2015-Jun-29 14:33N 59°57' E 030°15'6 6.1
2015-Jun-29 13:33N 59°56' E 030°04'7 6.5
2015-Jun-29 12:33N 59°57' E 029°51'6 5.7
2015-Jun-29 11:33N 59°60' E 029°41'5 4.5
2015-Jun-29 10:30N 60°00' E 029°31'9 0.6
2015-Jun-28 20:33N 59°58' E 029°48'7 6.7
2015-Jun-28 19:33N 59°55' E 030°01'7 7.5
2015-Jun-28 18:33N 59°58' E 030°15'5 0.6
2015-Jun-28 10:33N 59°56' E 030°24'4 4.0
2015-Jun-28 09:33N 59°57' E 030°16'6 6.1
2015-Jun-28 08:33N 59°56' E 030°04'6 6.5
2015-Jun-28 07:33N 59°57' E 029°51'6 0.5
2015-Jun-27 17:33N 59°60' E 029°40'8 7.8
2015-Jun-27 16:33N 59°57' E 029°54'8 7.7
2015-Jun-27 15:33N 59°57' E 030°10'7 7.0
2015-Jun-27 14:33N 59°57' E 030°24'3 0.9
2015-Jun-27 11:08N 59°54' E 030°26'3 5.0
2015-Jun-27 10:33N 59°57' E 030°24'4 4.4
2015-Jun-27 09:33N 59°57' E 030°15'6 5.7
2015-Jun-27 08:33N 59°56' E 030°04'6 6.4
2015-Jun-27 07:33N 59°57' E 029°51'7 0.5
2015-Jun-26 17:33N 59°60' E 029°38'7 7.1
2015-Jun-26 16:33N 59°57' E 029°51'7 7.3
2015-Jun-26 15:33N 59°57' E 030°06'7 7.1
2015-Jun-26 14:33N 59°57' E 030°20'3 0.4
2015-Jun-26 06:33N 59°55' E 030°25'4 3.6
2015-Jun-26 05:33N 59°57' E 030°19'5 5.1
2015-Jun-26 04:33N 59°57' E 030°08'7 6.6
2015-Jun-26 03:33N 59°56' E 029°55'6 6.3
2015-Jun-26 02:33N 59°59' E 029°44'2 0.2
2015-Jun-25 13:29N 59°60' E 029°40'2 2.1
2015-Jun-25 12:32N 59°59' E 029°43'6 6.5
2015-Jun-25 11:33N 59°56' E 029°55'8 7.9
2015-Jun-25 10:33N 59°53' E 030°10'2 2.3
2015-Jun-25 09:33N 59°52' E 030°13'0 0.0
2015-Jun-25 08:33N 59°52' E 030°13'0 0.0
2015-Jun-25 07:33N 59°52' E 030°13'4 4.4
2015-Jun-25 06:33N 59°54' E 030°06'7 7.0
2015-Jun-25 05:33N 59°57' E 029°53'9 0.6
2015-Jun-24 16:04N 60°00' E 029°37'4 8.6
2015-Jun-24 15:33N 59°59' E 029°45'7 7.4
2015-Jun-24 14:33N 59°56' E 029°59'8 7.6
2015-Jun-24 13:33N 59°58' E 030°13'6 6.4
2015-Jun-24 12:33N 59°55' E 030°24'2 1.3
2015-Jun-24 11:24N 59°54' E 030°27'0 0.1
2015-Jun-24 08:15N 59°54' E 030°26'3 4.8
2015-Jun-24 07:33N 59°57' E 030°24'4 4.1
2015-Jun-24 06:33N 59°57' E 030°15'  
Track history (hours):
 
Tides and Currents Weather Stations Pressure Air Temp Water Temp Dewpoint Dewpoint Depression Visibility Wind Speed Wind Dir Waves Ship Positions

Nevskiy-22

Last reported at 2015-Jul-04 06:33 UTC. Time now 2015-Jul-04 17:04 UTC.
Position N 59°60' E 029°39'.

Length 111 m; draft 2.4 m.

Type: Cargo ship. MMSI: 273449940.

Date/timePositionNaut miles runAvg speedWind from/ knotsBaromVisibWave heightAir tempDewpointWater temp
2015-Jul-04 06:33N 59°60' E 029°39'5 4.7
2015-Jul-04 05:33N 59°58' E 029°48'7 7.2
2015-Jul-04 04:33N 59°55' E 030°01'6 5.7
2015-Jul-04 03:33N 59°58' E 030°12'6 6.4
2015-Jul-04 02:33N 59°57' E 030°24'1 0.1
2015-Jul-03 09:33N 59°56' E 030°24'4 3.7
2015-Jul-03 08:33N 59°57' E 030°17'1 0.8
2015-Jul-03 07:33N 59°57' E 030°15'3 2.5
2015-Jul-03 06:33N 59°58' E 030°10'5 5.3
2015-Jul-03 05:33N 59°55' E 030°01'5 5.2
2015-Jul-03 04:33N 59°57' E 029°51'15 1.0
2015-Jul-02 14:30N 60°00' E 029°22'7 7.6
2015-Jul-02 13:31N 59°60' E 029°37'6 6.3
2015-Jul-02 12:33N 59°58' E 029°48'7 7.3
2015-Jul-02 11:33N 59°56' E 030°03'7 7.2
2015-Jul-02 10:33N 59°57' E 030°17'5 0.8
2015-Jul-02 04:33N 59°55' E 030°25'4 3.6
2015-Jul-02 03:34N 59°57' E 030°19'2 1.9
2015-Jul-02 02:34N 59°57' E 030°15'3 2.6
2015-Jul-02 01:34N 59°58' E 030°10'7 7.0
2015-Jul-02 00:33N 59°56' E 029°56'9 0.6
2015-Jul-01 10:32N 59°60' E 029°41'8 7.9
2015-Jul-01 09:33N 59°56' E 029°55'7 7.4
2015-Jul-01 08:34N 59°57' E 030°09'3 2.9
2015-Jul-01 07:33N 59°57' E 030°15'0 0.0
2015-Jul-01 06:33N 59°57' E 030°15'5 4.5
2015-Jul-01 05:33N 59°57' E 030°24'1 0.0
2015-Jun-30 16:32N 59°56' E 030°24'4 4.2
2015-Jun-30 15:33N 59°57' E 030°16'6 6.1
2015-Jun-30 14:33N 59°56' E 030°04'6 6.5
2015-Jun-30 13:33N 59°57' E 029°51'13 1.1
2015-Jun-30 01:13N 60°00' E 029°25'6 7.9
2015-Jun-30 00:30N 59°60' E 029°36'8 8.0
2015-Jun-29 23:33N 59°57' E 029°51'8 7.5
2015-Jun-29 22:33N 59°56' E 030°06'7 6.9
2015-Jun-29 21:32N 59°57' E 030°20'4 0.7
2015-Jun-29 16:04N 59°54' E 030°26'3 4.9
2015-Jun-29 15:33N 59°57' E 030°24'4 4.3
2015-Jun-29 14:33N 59°57' E 030°15'6 6.1
2015-Jun-29 13:33N 59°56' E 030°04'7 6.5
2015-Jun-29 12:33N 59°57' E 029°51'6 5.7
2015-Jun-29 11:33N 59°60' E 029°41'5 4.5
2015-Jun-29 10:30N 60°00' E 029°31'9 0.6
2015-Jun-28 20:33N 59°58' E 029°48'7 6.7
2015-Jun-28 19:33N 59°55' E 030°01'7 7.5
2015-Jun-28 18:33N 59°58' E 030°15'5 0.6
2015-Jun-28 10:33N 59°56' E 030°24'4 4.0
2015-Jun-28 09:33N 59°57' E 030°16'6 6.1
2015-Jun-28 08:33N 59°56' E 030°04'6 6.5
2015-Jun-28 07:33N 59°57' E 029°51'6 0.5
2015-Jun-27 17:33N 59°60' E 029°40'8 7.8
2015-Jun-27 16:33N 59°57' E 029°54'8 7.7
2015-Jun-27 15:33N 59°57' E 030°10'7 7.0
2015-Jun-27 14:33N 59°57' E 030°24'3 0.9
2015-Jun-27 11:08N 59°54' E 030°26'3 5.0
2015-Jun-27 10:33N 59°57' E 030°24'4 4.4
2015-Jun-27 09:33N 59°57' E 030°15'6 5.7
2015-Jun-27 08:33N 59°56' E 030°04'6 6.4
2015-Jun-27 07:33N 59°57' E 029°51'7 0.5
2015-Jun-26 17:33N 59°60' E 029°38'7 7.1
2015-Jun-26 16:33N 59°57' E 029°51'7 7.3
2015-Jun-26 15:33N 59°57' E 030°06'7 7.1
2015-Jun-26 14:33N 59°57' E 030°20'3 0.4
2015-Jun-26 06:33N 59°55' E 030°25'4 3.6
2015-Jun-26 05:33N 59°57' E 030°19'5 5.1
2015-Jun-26 04:33N 59°57' E 030°08'7 6.6
2015-Jun-26 03:33N 59°56' E 029°55'6 6.3
2015-Jun-26 02:33N 59°59' E 029°44'2 0.2
2015-Jun-25 13:29N 59°60' E 029°40'2 2.1
2015-Jun-25 12:32N 59°59' E 029°43'6 6.5
2015-Jun-25 11:33N 59°56' E 029°55'8 7.9
2015-Jun-25 10:33N 59°53' E 030°10'2 2.3
2015-Jun-25 09:33N 59°52' E 030°13'0 0.0
2015-Jun-25 08:33N 59°52' E 030°13'0 0.0
2015-Jun-25 07:33N 59°52' E 030°13'4 4.4
2015-Jun-25 06:33N 59°54' E 030°06'7 7.0
2015-Jun-25 05:33N 59°57' E 029°53'9 0.6
2015-Jun-24 16:04N 60°00' E 029°37'4 8.6
2015-Jun-24 15:33N 59°59' E 029°45'7 7.4
2015-Jun-24 14:33N 59°56' E 029°59'8 7.6
2015-Jun-24 13:33N 59°58' E 030°13'6 6.4
2015-Jun-24 12:33N 59°55' E 030°24'2 1.3
2015-Jun-24 11:24N 59°54' E 030°27'0 0.1
2015-Jun-24 08:15N 59°54' E 030°26'3 4.8
2015-Jun-24 07:33N 59°57' E 030°24'4 4.1
2015-Jun-24 06:33N 59°57' E 030°15'  

Dump ship's entire track history